Flight Track Log - Related Links

Times and Time Zones

All times are in EDT time to prevent confusion due to time zone crossing. See the JZA7853 flight status page for this flight to view local times or setup timezone preferences in your user account.

Time Position Orientation Groundspeed Altitude Reporting Facility
EDT Latitude Longitude Course Direction KTS MPH feet Rate Location/Type
Sun 10:43:41 PM 53.3000 -113.6333 21° North 120 138 3,600  Level Edmonton Center
Sun 10:44:41 PM 53.3167 -113.6667 310° West 150 173 4,500 900 Climbing Edmonton Center
Sun 10:45:41 PM 53.3667 -113.6500 11° North 160 184 5,400 900 Climbing Edmonton Center
Sun 10:46:41 PM 53.4167 -113.6333 11° North 170 196 6,300 900 Climbing Edmonton Center
Sun 10:47:41 PM 53.4667 -113.6167 11° North 180 207 7,200 900 Climbing Edmonton Center
Sun 10:48:00 PM 53.6834 -113.3364 21° North  Level Estimated
Sun 10:48:41 PM 53.5000 -113.5667 42° Northeast 180 207 8,100  Level Edmonton Center
Sun 10:49:00 PM 53.7457 -113.2955 21° North  Level Estimated
Sun 10:49:41 PM 53.5500 -113.5167 31° Northeast 190 219 8,900  Level Edmonton Center
Sun 10:50:41 PM 53.6000 -113.5000 11° North 180 207 9,900 900 Climbing Edmonton Center
Sun 10:51:41 PM 53.6500 -113.4500 31° Northeast 190 219 10,700 850 Climbing Edmonton Center
Sun 10:52:41 PM 53.7000 -113.4167 22° Northeast 190 219 11,600 900 Climbing Edmonton Center
Sun 10:53:41 PM 53.7333 -113.3667 42° Northeast 190 219 12,500 800 Climbing Edmonton Center
Sun 10:54:41 PM 53.7833 -113.3500 11° North 190 219 13,200 750 Climbing Edmonton Center
Sun 10:55:41 PM 53.8500 -113.3000 24° Northeast 190 219 14,000 750 Climbing Edmonton Center
Sun 10:56:41 PM 53.8833 -113.2500 41° Northeast 190 219 14,700 650 Climbing Edmonton Center
Sun 10:57:41 PM 53.9333 -113.2000 30° Northeast 200 230 15,300 600 Climbing Edmonton Center
Sun 10:58:41 PM 54.0000 -113.1500 24° Northeast 200 230 15,900 600 Climbing Edmonton Center
Sun 10:59:41 PM 54.0333 -113.1333 16° North 200 230 16,500 550 Climbing Edmonton Center
Sun 11:00:41 PM 54.0833 -113.0833 30° Northeast 200 230 17,000 500 Climbing Edmonton Center
Sun 11:01:41 PM 54.1333 -113.0333 30° Northeast 210 242 17,500 550 Climbing Edmonton Center
Sun 11:02:41 PM 54.1833 -112.9833 30° Northeast 210 242 18,100 550 Climbing Edmonton Center
Sun 11:03:41 PM 54.2500 -112.9500 16° North 210 242 18,600 450 Climbing Edmonton Center
Sun 11:04:41 PM 54.3000 -112.9000 30° Northeast 210 242 19,000 200 Climbing Edmonton Center
Sun 11:05:41 PM 54.3500 -112.8500 30° Northeast 220 253 19,000  Level Edmonton Center
Sun 11:06:41 PM 54.4000 -112.8000 30° Northeast 230 265 19,000  Level Edmonton Center
Sun 11:07:41 PM 54.4833 -112.7333 25° Northeast 240 276 19,000  Level Edmonton Center
Sun 11:08:41 PM 54.5333 -112.6833 30° Northeast 250 288 19,000  Level Edmonton Center
Sun 11:09:41 PM 54.6000 -112.6333 23° Northeast 250 288 19,000  Level Edmonton Center
Sun 11:10:41 PM 54.6667 -112.5833 23° Northeast 250 288 19,000  Level Edmonton Center
Sun 11:11:41 PM 54.7333 -112.5167 30° Northeast 250 288 19,000  Level Edmonton Center
Sun 11:12:41 PM 54.7833 -112.4667 30° Northeast 250 288 19,000  Level Edmonton Center
Sun 11:13:41 PM 54.8333 -112.4167 30° Northeast 250 288 19,000  Level Edmonton Center
Sun 11:14:41 PM 54.9167 -112.3667 19° North 250 288 19,000  Level Edmonton Center
Sun 11:15:41 PM 54.9833 -112.3000 30° Northeast 250 288 19,000  Level Edmonton Center
Sun 11:16:41 PM 55.0333 -112.2500 30° Northeast 250 288 19,000  Level Edmonton Center
Sun 11:17:41 PM 55.1167 -112.1667 30° Northeast 250 288 19,000  Level Edmonton Center
Sun 11:18:41 PM 55.1667 -112.1500 11° North 250 288 19,000  Level Edmonton Center
Sun 11:19:41 PM 55.2333 -112.1000 23° Northeast 260 299 19,000  Level Edmonton Center
Sun 11:20:41 PM 55.3000 -112.0500 23° Northeast 260 299 19,000  Level Edmonton Center
Sun 11:21:41 PM 55.3667 -112.0000 23° Northeast 260 299 19,000  Level Edmonton Center
Sun 11:22:41 PM 55.4333 -111.9667 16° North 260 299 19,000  Level Edmonton Center
Sun 11:23:41 PM 55.5000 -111.9167 23° Northeast 260 299 19,000  Level Edmonton Center
Sun 11:24:41 PM 55.5667 -111.8667 23° Northeast 260 299 19,000  Level Edmonton Center
Sun 11:25:41 PM 55.6500 -111.8167 19° North 260 299 19,000  Level Edmonton Center
Sun 11:26:41 PM 55.7167 -111.7667 23° Northeast 260 299 19,000  Level Edmonton Center
Sun 11:27:41 PM 55.7667 -111.7167 29° Northeast 260 299 19,000 -300 Level Edmonton Center
Sun 11:28:41 PM 55.8333 -111.6667 23° Northeast 260 299 18,400 -1,050 Descending Edmonton Center
Sun 11:29:41 PM 55.9167 -111.6000 24° Northeast 290 334 16,900 -1,500 Descending Edmonton Center
Sun 11:30:41 PM 56.0000 -111.5500 19° North 290 334 15,400 -1,500 Descending Edmonton Center
Sun 11:31:41 PM 56.0667 -111.5000 23° Northeast 300 345 13,900 -1,450 Descending Edmonton Center
Sun 11:32:41 PM 56.1333 -111.4500 23° Northeast 290 334 12,500 -1,450 Descending Edmonton Center
Sun 11:33:41 PM 56.2333 -111.3667 25° Northeast 280 322 11,000 -1,450 Descending Edmonton Center
Sun 11:34:41 PM 56.3000 -111.3167 23° Northeast 280 322 9,600 -1,300 Descending Edmonton Center
Sun 11:35:41 PM 56.3667 -111.2667 23° Northeast 270 311 8,400 -1,400 Descending Edmonton Center
Sun 11:36:41 PM 56.4333 -111.2167 23° Northeast 260 299 6,800 -1,400 Descending Edmonton Center
Sun 11:37:41 PM 56.5000 -111.1667 22° Northeast 240 276 5,600 -1,150 Descending Edmonton Center
Sun 11:38:41 PM 56.5500 -111.1500 10° North 210 242 4,500 -950 Descending Edmonton Center
Sun 11:39:41 PM 56.6000 -111.1000 29° Northeast 180 207 3,700 -900 Descending Edmonton Center
Sun 11:40:41 PM 56.6333 -111.1000 360° North 140 161 2,700 -900 Descending Edmonton Center
Sun 11:41:41 PM 56.6333 -111.1667 270° West 130 150 1,900 -750 Descending Edmonton Center
Sun 11:42:41 PM 56.6500 -111.2333 294° West 110 127 1,200 -700 Descending Edmonton Center

Login

Don't have an account? Register now (free) for customized features, flight alerts, and more!